PAMR/MRI METAR and TAF weather

Enter ICAO airport designator
Station Type Date Time Source
PAMR METAR 2019/06/27 09:53 UTC NOAA

PAMR 270953Z 00000KT 10SM FEW200 16/12 A3012 RMK AO2 SLP199 T01610117


Station Type Date Time Source
PAMR Decoded METAR 2019/06/27 09:53 UTC NOAA

ANCHORAGE MERRILL FIELD, AK, United States (PAMR) 61-13N 149-51W
Jun 27, 2019 - 05:53 AM EDT / 2019.06.27 0953 UTC
Wind: Calm:0
Visibility: 10 mile(s):0
Sky conditions: mostly clear
Temperature: 61.0 F (16.1 C)
Dew Point: 53.1 F (11.7 C)
Relative Humidity: 75%
Pressure (altimeter): 30.12 in. Hg (1019 hPa)
ob: PAMR 270953Z 00000KT 10SM FEW200 16/12 A3012 RMK AO2 SLP199 T01610117
cycle: 10

Station Type Date Time Source
PAMR TAF UTC NOAA

Error!

Example: see airport list